createdAt,value
2023-04-25T00:00:35.721Z,8.85
2023-04-25T00:03:02.378Z,8.92
2023-04-25T00:05:30.539Z,8.84
2023-04-25T00:07:58.438Z,8.86
2023-04-25T00:10:24.907Z,8.79
2023-04-25T00:12:53.524Z,8.82
2023-04-25T00:15:22.287Z,8.72
2023-04-25T00:17:48.904Z,8.82
2023-04-25T00:20:15.406Z,8.84
2023-04-25T00:22:41.840Z,8.75
2023-04-25T00:25:08.496Z,8.77
2023-04-25T00:27:35.115Z,8.85
2023-04-25T00:30:04.127Z,8.77
2023-04-25T00:32:30.531Z,8.74
2023-04-25T00:34:58.539Z,8.56
2023-04-25T00:37:25.582Z,8.76
2023-04-25T00:39:52.318Z,8.58
2023-04-25T00:42:19.101Z,8.69
2023-04-25T00:44:46.451Z,8.67
2023-04-25T00:47:13.371Z,8.62
2023-04-25T00:49:39.733Z,8.59
2023-04-25T00:52:06.311Z,8.56
2023-04-25T00:54:32.798Z,8.55
2023-04-25T00:56:59.924Z,8.51
2023-04-25T00:59:26.449Z,8.44
2023-04-25T01:01:52.978Z,8.57
2023-04-25T01:04:19.526Z,8.46
2023-04-25T01:06:48.472Z,8.42
2023-04-25T01:09:17.643Z,8.39
2023-04-25T01:11:43.984Z,8.48
2023-04-25T01:14:10.924Z,8.45
2023-04-25T01:16:42.433Z,8.48
2023-04-25T01:19:14.687Z,8.44
2023-04-25T01:21:43.722Z,8.41
2023-04-25T01:24:10.480Z,8.39
2023-04-25T01:26:41.129Z,8.54
2023-04-25T01:29:08.551Z,8.52
2023-04-25T01:31:38.064Z,8.57
2023-04-25T01:34:04.539Z,8.38
2023-04-25T01:36:32.200Z,8.46
2023-04-25T01:38:58.719Z,8.43
2023-04-25T01:41:27.761Z,8.44
2023-04-25T01:43:54.440Z,8.51
2023-04-25T01:46:20.830Z,8.51
2023-04-25T01:48:47.459Z,8.45
2023-04-25T01:51:14.199Z,8.55
2023-04-25T01:53:40.848Z,8.51
2023-04-25T01:56:07.669Z,8.55
2023-04-25T01:58:34.186Z,8.49
2023-04-25T02:01:00.787Z,8.45
2023-04-25T02:03:27.543Z,8.38
2023-04-25T02:05:54.084Z,8.45
2023-04-25T02:08:23.020Z,8.38
2023-04-25T02:10:49.624Z,8.38
2023-04-25T02:13:16.143Z,8.31
2023-04-25T02:15:42.805Z,8.32
2023-04-25T02:18:11.344Z,8.26
2023-04-25T02:20:37.969Z,8.20
2023-04-25T02:23:04.878Z,8.26
2023-04-25T02:25:31.302Z,8.20
2023-04-25T02:27:57.667Z,8.30
2023-04-25T02:30:24.001Z,8.36
2023-04-25T02:32:50.493Z,8.33
2023-04-25T02:35:19.484Z,8.33
2023-04-25T02:37:45.964Z,8.39
2023-04-25T02:40:12.802Z,8.35
2023-04-25T02:42:41.577Z,8.27
2023-04-25T02:45:10.940Z,8.33
2023-04-25T02:47:40.102Z,8.37
2023-04-25T02:50:09.439Z,8.32
2023-04-25T02:52:36.274Z,8.27
2023-04-25T02:55:05.241Z,8.31
2023-04-25T02:57:31.609Z,8.27
2023-04-25T02:59:57.980Z,8.16
2023-04-25T03:02:27.064Z,8.18
2023-04-25T03:04:53.511Z,8.18
2023-04-25T03:07:19.906Z,8.25
2023-04-25T03:09:46.259Z,8.20
2023-04-25T03:12:12.668Z,8.23
2023-04-25T03:14:39.156Z,8.22
2023-04-25T03:17:05.538Z,8.15
2023-04-25T03:19:34.378Z,8.27
2023-04-25T03:22:00.813Z,8.31
2023-04-25T03:24:30.019Z,8.41
2023-04-25T03:26:56.567Z,8.38
2023-04-25T03:29:25.439Z,8.34
2023-04-25T03:31:52.187Z,8.33
2023-04-25T03:34:18.509Z,8.30
2023-04-25T03:36:44.999Z,8.27
2023-04-25T03:39:11.409Z,8.31
2023-04-25T03:41:37.857Z,8.37
2023-04-25T03:44:04.388Z,8.29
2023-04-25T03:46:31.077Z,8.33
2023-04-25T03:48:57.671Z,8.30
2023-04-25T03:51:26.648Z,8.33
2023-04-25T03:53:53.575Z,8.26
2023-04-25T03:56:21.117Z,8.29
2023-04-25T03:58:52.576Z,8.20
2023-04-25T04:01:19.416Z,8.24
2023-04-25T04:03:45.949Z,8.22
2023-04-25T04:06:14.051Z,8.24
2023-04-25T04:08:40.582Z,8.34
2023-04-25T04:11:07.200Z,8.34
2023-04-25T04:13:33.624Z,8.21
2023-04-25T04:16:00.290Z,8.22
2023-04-25T04:18:26.769Z,8.30
2023-04-25T04:20:53.144Z,8.32
2023-04-25T04:23:20.950Z,8.34
2023-04-25T04:25:53.299Z,8.36
2023-04-25T04:28:22.916Z,8.29
2023-04-25T04:30:52.074Z,8.36
2023-04-25T04:33:20.465Z,8.26
2023-04-25T04:35:47.800Z,8.23
2023-04-25T04:38:16.381Z,8.31
2023-04-25T04:40:44.045Z,8.27
2023-04-25T04:43:11.126Z,8.25
2023-04-25T04:45:39.184Z,8.25
2023-04-25T04:48:07.397Z,8.35
2023-04-25T04:50:34.917Z,8.45
2023-04-25T04:53:03.799Z,8.49
2023-04-25T04:55:30.612Z,8.42
2023-04-25T04:57:59.484Z,8.38
2023-04-25T05:00:27.858Z,8.43
2023-04-25T05:02:59.129Z,8.51
2023-04-25T05:05:26.254Z,8.61
2023-04-25T05:07:55.196Z,8.50
2023-04-25T05:10:21.577Z,8.42
2023-04-25T05:12:48.038Z,8.56
2023-04-25T05:15:15.128Z,8.59
2023-04-25T05:17:41.576Z,8.62
2023-04-25T05:20:10.322Z,8.56
2023-04-25T05:22:36.973Z,8.57
2023-04-25T05:25:04.550Z,8.51
2023-04-25T05:27:31.435Z,8.57
2023-04-25T05:29:57.872Z,8.46
2023-04-25T05:32:26.013Z,8.61
2023-04-25T05:34:55.505Z,8.60
2023-04-25T05:37:24.092Z,8.63
2023-04-25T05:39:50.585Z,8.79
2023-04-25T05:42:17.024Z,8.86
2023-04-25T05:44:43.461Z,8.80
2023-04-25T05:47:09.945Z,8.76
2023-04-25T05:49:38.933Z,8.86
2023-04-25T05:52:05.512Z,8.85
2023-04-25T05:54:31.849Z,8.88
2023-04-25T05:57:03.664Z,8.96
2023-04-25T05:59:30.076Z,8.93
2023-04-25T06:01:56.558Z,8.81
2023-04-25T06:04:23.164Z,8.85
2023-04-25T06:06:49.839Z,8.84
2023-04-25T06:09:16.224Z,8.83
2023-04-25T06:11:42.921Z,8.85
2023-04-25T06:14:09.512Z,8.85
2023-04-25T06:16:35.900Z,8.97
2023-04-25T06:19:02.385Z,8.87
2023-04-25T06:21:28.744Z,8.89
2023-04-25T06:23:55.274Z,8.88
2023-04-25T06:26:21.741Z,8.87
2023-04-25T06:28:48.155Z,8.80
2023-04-25T06:31:14.648Z,8.95
2023-04-25T06:33:41.116Z,8.94
2023-04-25T06:36:10.665Z,9.15
2023-04-25T06:38:37.130Z,9.17
2023-04-25T06:41:03.798Z,9.30
2023-04-25T06:43:33.900Z,9.42
2023-04-25T06:46:01.413Z,9.63
2023-04-25T06:48:28.535Z,9.68
2023-04-25T06:50:55.382Z,9.70
2023-04-25T06:53:24.077Z,9.50
2023-04-25T06:55:50.479Z,9.44
2023-04-25T06:58:17.033Z,9.37
2023-04-25T07:00:43.461Z,9.37
2023-04-25T07:03:12.166Z,9.18
2023-04-25T07:05:38.882Z,9.23
2023-04-25T07:08:05.410Z,9.13
2023-04-25T07:10:31.909Z,9.17
2023-04-25T07:12:58.394Z,8.99
2023-04-25T07:15:24.806Z,9.01
2023-04-25T07:17:51.567Z,9.02
2023-04-25T07:20:18.262Z,8.91
2023-04-25T07:22:44.923Z,8.80
2023-04-25T07:25:11.496Z,8.60
2023-04-25T07:27:37.951Z,8.42
2023-04-25T07:30:05.331Z,8.33
2023-04-25T07:32:31.845Z,8.38
2023-04-25T07:35:00.907Z,8.38
2023-04-25T07:37:27.476Z,8.40
2023-04-25T07:39:53.942Z,8.41
2023-04-25T07:42:20.572Z,8.46
2023-04-25T07:44:48.266Z,8.46
2023-04-25T07:47:20.114Z,8.61
2023-04-25T07:49:46.811Z,8.55
2023-04-25T07:52:13.243Z,8.68
2023-04-25T07:54:39.601Z,8.68
2023-04-25T07:57:07.360Z,8.78
2023-04-25T07:59:33.759Z,8.66
2023-04-25T08:02:01.321Z,8.83
2023-04-25T08:04:27.989Z,8.53
2023-04-25T08:06:54.802Z,8.68
2023-04-25T08:09:21.630Z,8.60
2023-04-25T08:11:48.328Z,8.69
2023-04-25T08:14:17.404Z,9.06
2023-04-25T08:16:43.898Z,9.00
2023-04-25T08:19:11.960Z,9.07
2023-04-25T08:21:40.999Z,9.26
2023-04-25T08:24:07.736Z,9.54
2023-04-25T08:26:38.289Z,10.03
2023-04-25T08:29:07.246Z,10.19
2023-04-25T08:31:33.870Z,10.24
2023-04-25T08:34:00.320Z,10.02
2023-04-25T08:38:59.371Z,9.95
2023-04-25T08:41:26.593Z,9.78
2023-04-25T08:43:55.934Z,9.78
2023-04-25T08:46:23.172Z,9.85
2023-04-25T08:48:50.446Z,9.97
2023-04-25T08:51:25.547Z,10.15
2023-04-25T08:53:54.359Z,9.98
2023-04-25T08:56:24.697Z,10.13
2023-04-25T08:58:56.523Z,10.20
2023-04-25T09:01:23.224Z,10.39
2023-04-25T09:03:50.334Z,10.56
2023-04-25T09:06:18.822Z,10.55
2023-04-25T09:08:45.434Z,11.04
2023-04-25T09:11:13.580Z,11.26
2023-04-25T09:13:46.037Z,11.00
2023-04-25T09:16:12.469Z,11.26
2023-04-25T09:18:38.902Z,11.80
2023-04-25T09:21:13.801Z,11.77
2023-04-25T09:23:52.604Z,11.97
2023-04-25T09:26:22.694Z,12.07
2023-04-25T09:28:49.254Z,11.80
2023-04-25T09:31:28.166Z,11.78
2023-04-25T09:34:04.536Z,11.93
2023-04-25T09:36:31.573Z,11.60
2023-04-25T09:39:00.757Z,11.47
2023-04-25T09:41:27.158Z,11.60
2023-04-25T09:44:00.849Z,12.06
2023-04-25T09:46:34.898Z,12.51
2023-04-25T09:49:07.661Z,12.83
2023-04-25T09:51:36.180Z,12.90
2023-04-25T09:54:02.569Z,12.71
2023-04-25T09:56:33.987Z,12.88
2023-04-25T09:59:00.681Z,12.60
2023-04-25T10:01:27.886Z,12.78
2023-04-25T10:03:57.832Z,12.40
2023-04-25T10:06:29.267Z,12.03
2023-04-25T10:08:57.062Z,11.88
2023-04-25T10:11:25.737Z,11.81
2023-04-25T10:13:53.601Z,11.70
2023-04-25T10:16:21.096Z,11.79
2023-04-25T10:18:47.463Z,12.20
2023-04-25T10:21:15.549Z,12.18
2023-04-25T10:23:43.178Z,11.69
2023-04-25T10:26:13.979Z,11.90
2023-04-25T10:29:00.707Z,12.51
2023-04-25T10:31:27.963Z,12.16
2023-04-25T10:33:58.012Z,11.92
2023-04-25T10:36:26.453Z,12.01
2023-04-25T10:38:55.433Z,12.01
2023-04-25T10:41:23.992Z,12.00
2023-04-25T10:43:59.785Z,12.44
2023-04-25T10:46:28.803Z,12.45
2023-04-25T10:49:04.841Z,12.44
2023-04-25T10:51:51.531Z,13.18
2023-04-25T10:54:27.070Z,12.78
2023-04-25T10:56:54.227Z,12.38
2023-04-25T10:59:22.973Z,11.99
2023-04-25T11:01:54.066Z,11.81
2023-04-25T11:04:21.967Z,11.64
2023-04-25T11:07:07.727Z,11.67
2023-04-25T11:09:36.347Z,11.59
2023-04-25T11:12:06.003Z,11.50
2023-04-25T11:14:32.783Z,11.29
2023-04-25T11:17:01.031Z,11.52
2023-04-25T11:19:30.470Z,11.83
2023-04-25T11:21:58.418Z,11.63
2023-04-25T11:24:35.711Z,11.53
2023-04-25T11:27:03.516Z,11.40
2023-04-25T11:29:31.562Z,11.29
2023-04-25T11:32:03.312Z,11.44
2023-04-25T11:34:34.378Z,11.48
2023-04-25T11:37:02.584Z,11.41
2023-04-25T11:39:32.142Z,11.47
2023-04-25T11:41:59.753Z,12.02
2023-04-25T11:44:29.183Z,12.32
2023-04-25T11:46:56.204Z,12.65
2023-04-25T11:49:25.897Z,13.45
2023-04-25T11:51:52.554Z,13.23
2023-04-25T11:54:22.483Z,13.06
2023-04-25T11:56:49.011Z,12.84
2023-04-25T11:59:15.689Z,12.73
2023-04-25T12:01:51.761Z,12.42
2023-04-25T12:04:23.605Z,12.21
2023-04-25T12:06:51.828Z,11.92
2023-04-25T12:09:22.479Z,12.18
2023-04-25T12:11:53.608Z,12.11
2023-04-25T12:14:31.189Z,11.98
2023-04-25T12:16:59.287Z,12.18
2023-04-25T12:19:26.911Z,12.19
2023-04-25T12:24:26.583Z,12.43
2023-04-25T12:27:05.034Z,12.65
2023-04-25T12:29:41.915Z,12.30
2023-04-25T12:32:14.988Z,11.99
2023-04-25T12:34:47.165Z,12.12
2023-04-25T12:37:13.971Z,11.93
2023-04-25T12:39:40.624Z,12.13
2023-04-25T12:42:09.643Z,12.38
2023-04-25T12:44:36.605Z,12.49
2023-04-25T12:47:04.362Z,12.30
2023-04-25T12:49:33.375Z,12.66
2023-04-25T12:52:02.302Z,12.93
2023-04-25T12:54:31.324Z,13.28
2023-04-25T12:56:58.143Z,13.86
2023-04-25T12:59:24.494Z,14.02
2023-04-25T13:01:50.941Z,13.86
2023-04-25T13:04:17.766Z,13.13
2023-04-25T13:06:44.321Z,13.18
2023-04-25T13:09:12.508Z,12.93
2023-04-25T13:11:38.944Z,13.01
2023-04-25T13:14:05.776Z,12.83
2023-04-25T13:16:32.983Z,13.04
2023-04-25T13:18:59.965Z,12.82
2023-04-25T13:21:26.531Z,12.75
2023-04-25T13:23:53.222Z,12.68
2023-04-25T13:26:19.847Z,12.97
2023-04-25T13:28:46.520Z,13.18
2023-04-25T13:31:15.398Z,12.89
2023-04-25T13:33:44.108Z,12.67
2023-04-25T13:36:11.095Z,12.81
2023-04-25T13:38:40.580Z,12.88
2023-04-25T13:41:08.175Z,12.55
2023-04-25T13:43:37.056Z,12.93
2023-04-25T13:46:04.268Z,12.70
2023-04-25T13:48:36.189Z,12.96
2023-04-25T13:51:02.557Z,12.81
2023-04-25T13:53:28.933Z,12.68
2023-04-25T13:55:55.509Z,12.77
2023-04-25T13:58:22.051Z,12.37
2023-04-25T14:00:48.462Z,12.08
2023-04-25T14:03:15.030Z,12.29
2023-04-25T14:05:41.920Z,12.13
2023-04-25T14:08:10.219Z,12.17
2023-04-25T14:10:37.987Z,12.34
2023-04-25T14:13:05.571Z,12.52
2023-04-25T14:15:36.013Z,12.33
2023-04-25T14:18:03.068Z,12.32
2023-04-25T14:20:30.119Z,12.46
2023-04-25T14:22:58.128Z,12.12
2023-04-25T14:25:25.900Z,12.05
2023-04-25T14:27:52.348Z,12.33
2023-04-25T14:30:20.134Z,12.25
2023-04-25T14:32:47.103Z,12.15
2023-04-25T14:35:13.914Z,12.12
2023-04-25T14:37:43.501Z,12.08
2023-04-25T14:40:11.750Z,12.27
2023-04-25T14:42:40.965Z,12.19
2023-04-25T14:45:11.548Z,12.06
2023-04-25T14:47:38.371Z,11.65
2023-04-25T14:50:05.825Z,11.61
2023-04-25T14:52:32.585Z,11.38
2023-04-25T14:55:01.416Z,11.37
2023-04-25T14:57:28.022Z,11.34
2023-04-25T14:59:54.404Z,11.29
2023-04-25T15:02:20.910Z,11.40
2023-04-25T15:04:49.771Z,11.57
2023-04-25T15:07:18.854Z,11.65
2023-04-25T15:09:45.307Z,11.83
2023-04-25T15:12:12.186Z,11.85
2023-04-25T15:14:41.624Z,11.99
2023-04-25T15:17:08.072Z,11.87
2023-04-25T15:19:34.572Z,11.88
2023-04-25T15:22:03.985Z,11.82
2023-04-25T15:24:31.049Z,11.91
2023-04-25T15:26:59.934Z,12.01
2023-04-25T15:29:29.744Z,12.08
2023-04-25T15:31:56.281Z,12.03
2023-04-25T15:34:22.678Z,12.06
2023-04-25T15:36:51.641Z,12.03
2023-04-25T15:39:18.016Z,12.14
2023-04-25T15:41:44.430Z,12.38
2023-04-25T15:44:11.212Z,12.31
2023-04-25T15:46:38.364Z,12.27
2023-04-25T15:49:04.987Z,12.09
2023-04-25T15:51:33.774Z,11.80
2023-04-25T15:54:02.407Z,11.85
2023-04-25T15:56:28.868Z,11.84
2023-04-25T15:58:55.650Z,11.71
2023-04-25T16:01:24.300Z,11.60
2023-04-25T16:03:52.244Z,11.67
2023-04-25T16:06:19.036Z,11.75
2023-04-25T16:08:47.600Z,11.69
2023-04-25T16:11:14.801Z,11.67
2023-04-25T16:13:41.503Z,11.65
2023-04-25T16:16:10.069Z,11.49
2023-04-25T16:18:36.982Z,11.58
2023-04-25T16:21:04.015Z,11.46
2023-04-25T16:23:31.335Z,11.34
2023-04-25T16:26:00.244Z,11.31
2023-04-25T16:28:26.690Z,11.29
2023-04-25T16:30:53.201Z,11.21
2023-04-25T16:33:22.120Z,11.23
2023-04-25T16:35:50.111Z,11.18
2023-04-25T16:38:16.580Z,11.17
2023-04-25T16:40:42.930Z,10.95
2023-04-25T16:43:09.865Z,11.02
2023-04-25T16:45:36.497Z,11.02
2023-04-25T16:48:05.630Z,10.87
2023-04-25T16:50:40.874Z,10.85
2023-04-25T16:53:07.233Z,10.85
2023-04-25T16:55:33.706Z,10.92
2023-04-25T16:58:02.565Z,10.83
2023-04-25T17:00:28.940Z,10.83
2023-04-25T17:02:55.454Z,10.80
2023-04-25T17:05:22.179Z,10.86
2023-04-25T17:07:48.510Z,10.73
2023-04-25T17:10:15.047Z,10.71
2023-04-25T17:12:41.601Z,10.62
2023-04-25T17:15:08.752Z,10.62
2023-04-25T17:17:35.279Z,10.59
2023-04-25T17:20:01.877Z,10.68
2023-04-25T17:22:28.297Z,10.69
2023-04-25T17:24:54.847Z,10.56
2023-04-25T17:27:21.331Z,10.55
2023-04-25T17:29:47.786Z,10.49
2023-04-25T17:32:17.562Z,10.47
2023-04-25T17:34:48.160Z,10.50
2023-04-25T17:37:16.380Z,10.50
2023-04-25T17:39:45.800Z,10.49
2023-04-25T17:42:12.424Z,10.49
2023-04-25T17:44:39.569Z,10.38
2023-04-25T17:47:09.732Z,10.36
2023-04-25T17:49:36.407Z,10.29
2023-04-25T17:52:06.482Z,10.21
2023-04-25T17:54:32.973Z,10.25
2023-04-25T17:56:59.413Z,10.20
2023-04-25T17:59:26.290Z,10.13
2023-04-25T18:01:52.735Z,10.19
2023-04-25T18:04:19.309Z,10.10
2023-04-25T18:06:45.753Z,10.09
2023-04-25T18:09:18.043Z,10.16
2023-04-25T18:11:45.385Z,10.07
2023-04-25T18:14:16.072Z,9.98
2023-04-25T18:16:44.756Z,10.05
2023-04-25T18:19:11.914Z,9.98
2023-04-25T18:21:45.704Z,9.95
2023-04-25T18:24:13.726Z,10.00
2023-04-25T18:26:40.494Z,9.95
2023-04-25T18:29:18.958Z,9.93
2023-04-25T18:31:55.698Z,9.93
2023-04-25T18:34:26.057Z,9.92
2023-04-25T18:36:56.721Z,9.87
2023-04-25T18:39:24.441Z,9.83
2023-04-25T18:41:58.105Z,9.76
2023-04-25T18:44:28.002Z,9.71
2023-04-25T18:46:54.538Z,9.64
2023-04-25T18:49:26.381Z,9.65
2023-04-25T18:51:56.140Z,9.64
2023-04-25T18:54:22.823Z,9.56
2023-04-25T18:56:49.375Z,9.51
2023-04-25T18:59:17.129Z,9.62
2023-04-25T19:01:46.661Z,9.39
2023-04-25T19:04:13.266Z,9.41
2023-04-25T19:06:39.901Z,9.29
2023-04-25T19:09:07.652Z,9.34
2023-04-25T19:11:34.510Z,9.36
2023-04-25T19:14:01.354Z,9.12
2023-04-25T19:16:30.564Z,9.18
2023-04-25T19:18:57.009Z,9.05
2023-04-25T19:21:27.059Z,9.05
2023-04-25T19:23:54.332Z,8.99
2023-04-25T19:26:21.175Z,9.04
2023-04-25T19:28:47.568Z,9.04
2023-04-25T19:31:13.970Z,9.01
2023-04-25T19:33:41.221Z,8.98
2023-04-25T19:36:09.903Z,8.92
2023-04-25T19:38:36.260Z,8.99
2023-04-25T19:41:07.690Z,8.97
2023-04-25T19:43:38.886Z,8.98
2023-04-25T19:46:05.404Z,8.93
2023-04-25T19:48:31.888Z,8.88
2023-04-25T19:50:58.487Z,8.86
2023-04-25T19:53:27.214Z,8.80
2023-04-25T19:55:53.576Z,8.82
2023-04-25T19:58:20.130Z,8.87
2023-04-25T20:00:47.057Z,8.82
2023-04-25T20:03:13.557Z,8.83
2023-04-25T20:05:40.033Z,8.83
2023-04-25T20:08:06.609Z,8.78
2023-04-25T20:10:33.088Z,8.74
2023-04-25T20:13:02.191Z,8.66
2023-04-25T20:15:31.826Z,8.64
2023-04-25T20:17:58.289Z,8.65
2023-04-25T20:20:24.682Z,8.61
2023-04-25T20:22:54.204Z,8.62
2023-04-25T20:25:26.276Z,8.48
2023-04-25T20:27:56.394Z,8.34
2023-04-25T20:30:22.874Z,8.26
2023-04-25T20:32:50.045Z,8.16
2023-04-25T20:35:17.481Z,7.93
2023-04-25T20:37:44.059Z,7.81
2023-04-25T20:40:10.803Z,7.78
2023-04-25T20:42:38.071Z,7.60
2023-04-25T20:45:07.908Z,7.32
2023-04-25T20:47:35.038Z,7.48
2023-04-25T20:50:03.799Z,7.41
2023-04-25T20:52:31.849Z,7.34
2023-04-25T20:54:58.513Z,7.14
2023-04-25T20:57:24.867Z,7.05
2023-04-25T20:59:51.473Z,6.95
2023-04-25T21:02:17.933Z,6.76
2023-04-25T21:04:44.412Z,6.86
2023-04-25T21:07:14.403Z,6.71
2023-04-25T21:09:42.507Z,6.72
2023-04-25T21:12:09.008Z,6.74
2023-04-25T21:14:37.930Z,6.58
2023-04-25T21:17:04.714Z,6.51
2023-04-25T21:19:31.541Z,6.42
2023-04-25T21:21:58.845Z,6.33
2023-04-25T21:24:27.068Z,6.26
2023-04-25T21:29:19.967Z,6.16
2023-04-25T21:31:48.867Z,6.05
2023-04-25T21:34:15.570Z,6.01
2023-04-25T21:36:42.227Z,5.84
2023-04-25T21:39:11.143Z,5.78
2023-04-25T21:41:40.266Z,5.74
2023-04-25T21:44:07.170Z,5.72
2023-04-25T21:46:33.947Z,5.54
2023-04-25T21:49:00.448Z,5.55
2023-04-25T21:51:26.952Z,5.54
2023-04-25T21:53:53.395Z,5.51
2023-04-25T21:56:22.182Z,5.44
2023-04-25T21:58:48.672Z,5.38
2023-04-25T22:01:15.800Z,5.35
2023-04-25T22:03:42.929Z,5.26
2023-04-25T22:06:09.505Z,5.31
2023-04-25T22:08:36.366Z,5.33
2023-04-25T22:11:03.038Z,5.30
2023-04-25T22:13:29.556Z,5.37
2023-04-25T22:15:59.182Z,5.39
2023-04-25T22:18:25.673Z,5.38
2023-04-25T22:20:54.509Z,5.46
2023-04-25T22:23:25.553Z,5.50
2023-04-25T22:25:52.094Z,5.55
2023-04-25T22:28:18.698Z,5.53
2023-04-25T22:30:45.484Z,5.60
2023-04-25T22:33:14.223Z,5.65
2023-04-25T22:35:42.997Z,5.65
2023-04-25T22:38:11.726Z,5.63
2023-04-25T22:40:38.300Z,5.73
2023-04-25T22:43:05.313Z,5.71
2023-04-25T22:45:32.611Z,5.68
2023-04-25T22:47:59.439Z,5.69
2023-04-25T22:50:27.002Z,5.68
2023-04-25T22:52:53.706Z,5.60
2023-04-25T22:55:20.359Z,5.50
2023-04-25T22:57:49.093Z,5.38
2023-04-25T23:00:16.723Z,5.34
2023-04-25T23:02:47.192Z,5.27
2023-04-25T23:05:15.030Z,5.25
2023-04-25T23:07:42.232Z,5.15
2023-04-25T23:10:09.166Z,5.13
2023-04-25T23:12:40.309Z,5.11
2023-04-25T23:15:07.924Z,5.05
2023-04-25T23:17:35.227Z,5.04
2023-04-25T23:20:07.579Z,4.98
2023-04-25T23:22:34.550Z,4.96
2023-04-25T23:25:01.009Z,4.90
2023-04-25T23:27:27.578Z,4.96
2023-04-25T23:29:57.945Z,4.92
2023-04-25T23:32:25.999Z,4.91
2023-04-25T23:34:52.598Z,4.87
2023-04-25T23:37:19.499Z,4.88
2023-04-25T23:39:50.513Z,4.85
2023-04-25T23:42:17.800Z,4.88
2023-04-25T23:44:46.764Z,4.81
2023-04-25T23:47:14.257Z,4.85
2023-04-25T23:49:41.066Z,4.84
2023-04-25T23:52:07.873Z,4.75
2023-04-25T23:54:34.318Z,4.73
2023-04-25T23:57:00.828Z,4.75
2023-04-25T23:59:28.608Z,4.72
